Time;durP1;ratioP1;P1;durP2;ratioP2;P2;SDS_P1;SDS_P2;PMS_P1;PMS_P2;Temp;Humidity;BMP_temperature;BMP_pressure;BME280_temperature;BME280_humidity;BME280_pressure;Samples;Min_cycle;Max_cycle;Signal;HPM_P1;HPM_P2
2021/09/07 00:00:20;;;;;;;5.60;4.18;;;20.50;69.10;;;;;;5093146;28;20414;-73
2021/09/07 00:02:46;;;;;;;5.05;3.38;;;20.50;69.20;;;;;;5090989;28;20048;-73
2021/09/07 00:05:12;;;;;;;4.20;3.80;;;20.50;69.10;;;;;;5057011;28;20108;-73
2021/09/07 00:07:38;;;;;;;5.07;4.18;;;20.50;68.90;;;;;;5052613;28;20021;-73
2021/09/07 00:10:06;;;;;;;3.58;3.28;;;20.60;68.80;;;;;;5034659;28;20116;-73
2021/09/07 00:12:32;;;;;;;5.82;3.67;;;20.60;68.70;;;;;;5066657;28;20546;-73
2021/09/07 00:14:58;;;;;;;4.38;3.70;;;20.50;68.90;;;;;;5074658;28;20509;-73
2021/09/07 00:17:24;;;;;;;3.85;3.47;;;20.60;68.80;;;;;;5092663;28;20028;-73
2021/09/07 00:19:49;;;;;;;6.20;4.05;;;20.50;68.90;;;;;;5092513;28;20497;-73
2021/09/07 00:22:15;;;;;;;8.38;4.03;;;20.50;69.20;;;;;;5092789;28;20033;-73
2021/09/07 00:24:41;;;;;;;5.82;4.28;;;20.50;69.50;;;;;;5092816;28;20020;-76
2021/09/07 00:27:06;;;;;;;7.32;4.28;;;20.50;69.40;;;;;;5092537;28;20111;-76
2021/09/07 00:29:33;;;;;;;4.43;4.03;;;20.40;69.70;;;;;;5079986;28;20048;-76
2021/09/07 00:31:59;;;;;;;5.70;4.13;;;20.40;70.00;;;;;;5079696;28;20107;-76
2021/09/07 00:34:25;;;;;;;4.50;4.00;;;20.30;70.20;;;;;;5069427;28;20083;-73
2021/09/07 00:36:51;;;;;;;4.38;4.07;;;20.30;70.20;;;;;;5052390;28;20370;-73
2021/09/07 00:39:16;;;;;;;4.95;4.00;;;20.30;70.30;;;;;;5055535;28;20024;-73
2021/09/07 00:41:42;;;;;;;4.00;3.67;;;20.20;70.40;;;;;;5076537;28;20543;-73
2021/09/07 00:44:19;;;;;;;5.72;3.92;;;20.20;70.60;;;;;;5076472;28;20017;-73
2021/09/07 00:46:52;;;;;;;4.32;3.88;;;20.20;70.90;;;;;;5076313;28;20020;-75
2021/09/07 00:49:19;;;;;;;3.83;3.50;;;20.20;71.00;;;;;;5056295;28;20096;-75
2021/09/07 00:51:46;;;;;;;4.80;3.97;;;20.20;71.10;;;;;;5061756;28;20124;-76
2021/09/07 00:54:13;;;;;;;5.10;4.60;;;20.10;71.20;;;;;;5096529;28;20020;-76
2021/09/07 00:56:41;;;;;;;5.40;4.07;;;20.20;71.40;;;;;;5096482;28;20069;-75
2021/09/07 00:59:08;;;;;;;5.10;3.78;;;20.20;71.40;;;;;;5096461;28;20074;-75
2021/09/07 01:01:34;;;;;;;4.85;4.10;;;20.10;71.50;;;;;;5081275;28;20119;-75
2021/09/07 01:04:00;;;;;;;6.85;3.67;;;20.20;71.50;;;;;;5076478;28;20104;-76
2021/09/07 01:06:27;;;;;;;5.97;3.97;;;20.20;71.40;;;;;;5076066;28;20034;-75
2021/09/07 01:08:54;;;;;;;4.18;3.80;;;20.20;71.30;;;;;;5076360;28;20384;-75
2021/09/07 01:11:20;;;;;;;4.57;3.88;;;20.20;71.40;;;;;;5076250;28;20488;-73
2021/09/07 01:13:46;;;;;;;4.55;3.85;;;20.20;71.30;;;;;;5057883;28;20103;-73
2021/09/07 01:16:13;;;;;;;4.15;3.78;;;20.20;71.10;;;;;;5076015;28;20028;-73
2021/09/07 01:18:40;;;;;;;4.60;4.18;;;20.20;71.00;;;;;;5088198;28;20031;-73
2021/09/07 01:21:12;;;;;;;4.95;4.30;;;20.20;71.10;;;;;;5096208;28;20023;-72
2021/09/07 01:23:42;;;;;;;5.22;3.90;;;20.20;71.10;;;;;;5077781;28;20032;-76
2021/09/07 01:26:19;;;;;;;3.83;3.53;;;20.20;71.20;;;;;;5095699;28;20111;-76
2021/09/07 01:28:46;;;;;;;4.28;3.67;;;20.20;71.40;;;;;;5095882;28;20039;-75
2021/09/07 01:31:12;;;;;;;7.18;4.03;;;20.20;71.40;;;;;;5065698;28;20028;-75
2021/09/07 01:33:39;;;;;;;4.47;4.05;;;20.20;71.10;;;;;;5059956;28;20107;-76
2021/09/07 01:36:06;;;;;;;5.82;4.25;;;20.30;71.00;;;;;;5057321;28;20408;-75
2021/09/07 01:38:33;;;;;;;5.30;4.10;;;20.30;70.80;;;;;;5075440;28;20059;-76
2021/09/07 01:41:00;;;;;;;5.28;4.10;;;20.30;70.70;;;;;;5075708;28;20516;-75
2021/09/07 01:43:25;;;;;;;3.90;3.60;;;20.30;70.70;;;;;;5075177;28;20476;-75
2021/09/07 01:45:52;;;;;;;5.35;3.72;;;20.20;71.00;;;;;;5075530;28;20023;-76
2021/09/07 01:48:19;;;;;;;4.57;4.15;;;20.20;71.10;;;;;;5075402;28;20025;-75
2021/09/07 01:50:45;;;;;;;5.68;4.15;;;20.20;71.30;;;;;;5074061;28;20081;-76
2021/09/07 01:53:11;;;;;;;4.97;3.72;;;20.10;71.30;;;;;;5085308;28;20463;-76
2021/09/07 01:55:37;;;;;;;5.05;4.55;;;20.00;71.60;;;;;;5095425;28;20154;-75
2021/09/07 01:58:03;;;;;;;5.38;3.85;;;20.10;71.80;;;;;;5095465;28;20020;-76
2021/09/07 02:00:29;;;;;;;6.63;3.75;;;20.10;71.70;;;;;;5095481;28;20117;-76
2021/09/07 02:02:55;;;;;;;5.47;3.83;;;20.10;71.70;;;;;;5095437;28;20024;-73
2021/09/07 02:05:21;;;;;;;3.85;3.55;;;20.00;71.80;;;;;;5056515;28;20025;-72
2021/09/07 02:07:46;;;;;;;8.80;4.18;;;19.90;72.00;;;;;;5054997;28;20056;-73
2021/09/07 02:10:12;;;;;;;5.22;4.30;;;19.90;72.20;;;;;;5049990;28;20024;-73
2021/09/07 02:12:39;;;;;;;4.82;3.88;;;19.90;72.50;;;;;;5094900;28;20451;-73
2021/09/07 02:15:06;;;;;;;5.32;3.88;;;19.90;72.50;;;;;;5076924;28;20373;-73
2021/09/07 02:17:32;;;;;;;5.20;4.47;;;20.00;73.10;;;;;;5076712;28;20024;-73
2021/09/07 02:19:58;;;;;;;5.18;4.07;;;19.90;71.90;;;;;;5095045;28;20555;-73
2021/09/07 02:22:23;;;;;;;4.80;4.00;;;20.10;70.90;;;;;;5074675;28;20379;-73
2021/09/07 02:24:50;;;;;;;7.05;3.97;;;20.10;71.30;;;;;;5074637;28;20036;-73
2021/09/07 02:27:15;;;;;;;7.13;4.03;;;20.20;71.40;;;;;;5074531;28;20030;-73
2021/09/07 02:29:41;;;;;;;4.05;3.60;;;20.10;71.30;;;;;;5056861;28;20036;-73
2021/09/07 02:32:07;;;;;;;4.32;4.00;;;20.20;70.90;;;;;;5074638;28;20064;-73
2021/09/07 02:34:33;;;;;;;3.95;3.58;;;20.10;71.00;;;;;;5049030;28;20080;-73
2021/09/07 02:37:00;;;;;;;4.85;3.78;;;20.10;71.50;;;;;;5034668;28;20104;-72
2021/09/07 02:39:25;;;;;;;3.75;3.13;;;20.10;71.70;;;;;;5034511;28;20033;-73
2021/09/07 02:41:51;;;;;;;3.92;3.58;;;20.10;72.00;;;;;;5032986;28;20033;-73
2021/09/07 02:44:18;;;;;;;4.05;3.50;;;20.00;72.00;;;;;;5034373;28;20033;-73
2021/09/07 02:46:44;;;;;;;4.20;3.90;;;20.00;72.30;;;;;;5043316;28;20491;-73
2021/09/07 02:49:11;;;;;;;6.93;4.32;;;19.90;72.70;;;;;;5054335;28;20465;-73
2021/09/07 02:51:37;;;;;;;4.15;3.75;;;19.90;72.80;;;;;;5054411;28;20081;-73
2021/09/07 02:54:03;;;;;;;4.45;3.90;;;19.80;72.70;;;;;;5054265;28;20033;-73
2021/09/07 02:56:29;;;;;;;6.13;4.18;;;19.80;72.90;;;;;;5053995;28;20056;-73
2021/09/07 02:58:54;;;;;;;4.63;3.78;;;19.80;72.70;;;;;;5054154;28;20033;-73
2021/09/07 03:01:20;;;;;;;3.78;3.55;;;19.90;72.70;;;;;;5053845;28;20017;-73
2021/09/07 03:03:46;;;;;;;6.32;4.35;;;19.90;72.70;;;;;;5053793;28;20716;-73
2021/09/07 03:06:12;;;;;;;4.47;4.07;;;19.90;72.70;;;;;;5052484;28;20028;-73
2021/09/07 03:08:38;;;;;;;4.03;3.70;;;19.80;72.70;;;;;;5053745;28;20029;-73
2021/09/07 03:11:05;;;;;;;5.88;3.58;;;19.80;73.20;;;;;;5053871;28;20021;-73
2021/09/07 03:13:31;;;;;;;5.05;3.50;;;19.70;73.00;;;;;;5053828;28;20021;-73
2021/09/07 03:15:57;;;;;;;5.97;4.07;;;19.70;73.10;;;;;;5052417;28;20033;-73
2021/09/07 03:18:23;;;;;;;7.50;3.88;;;19.80;72.80;;;;;;5053630;28;20017;-73
2021/09/07 03:20:48;;;;;;;8.75;4.53;;;19.80;72.60;;;;;;5067198;28;20044;-73
2021/09/07 03:23:14;;;;;;;6.35;4.57;;;19.70;72.80;;;;;;5073600;28;20284;-72
2021/09/07 03:25:40;;;;;;;4.45;3.97;;;19.70;73.20;;;;;;5073509;28;20025;-73
2021/09/07 03:28:06;;;;;;;5.00;4.10;;;19.70;73.40;;;;;;5073759;28;20031;-75
2021/09/07 03:30:32;;;;;;;7.30;4.57;;;19.60;73.00;;;;;;5092928;28;20059;-76
2021/09/07 03:32:58;;;;;;;4.28;3.33;;;19.60;73.10;;;;;;5093933;28;20407;-76
2021/09/07 03:35:23;;;;;;;4.18;3.78;;;19.60;72.90;;;;;;5054191;28;20035;-75
2021/09/07 03:37:49;;;;;;;6.38;4.32;;;19.60;72.90;;;;;;5054669;28;20107;-75
2021/09/07 03:40:15;;;;;;;3.95;3.58;;;19.60;73.00;;;;;;5073458;28;20479;-76
2021/09/07 03:42:41;;;;;;;5.65;4.13;;;19.60;73.10;;;;;;5081209;28;20097;-75
2021/09/07 03:45:11;;;;;;;7.07;3.90;;;19.60;73.20;;;;;;5093332;28;20016;-75
2021/09/07 03:47:38;;;;;;;4.70;4.05;;;19.60;73.20;;;;;;5093532;28;20020;-76
2021/09/07 03:50:04;;;;;;;4.28;3.97;;;19.60;73.00;;;;;;5093597;28;20035;-75
2021/09/07 03:52:30;;;;;;;4.43;3.83;;;19.60;73.00;;;;;;5079047;28;20025;-75
2021/09/07 03:54:56;;;;;;;4.18;3.72;;;19.60;72.90;;;;;;5073223;28;20039;-75
2021/09/07 03:57:23;;;;;;;4.63;4.07;;;19.60;72.90;;;;;;5072926;28;20104;-76
2021/09/07 03:59:48;;;;;;;4.43;4.00;;;19.60;72.70;;;;;;5073268;28;20056;-76
2021/09/07 04:02:14;;;;;;;4.00;3.60;;;19.60;73.00;;;;;;5073662;28;20067;-76
2021/09/07 04:04:40;;;;;;;5.57;4.35;;;19.60;73.20;;;;;;5055214;28;20020;-76
2021/09/07 04:07:05;;;;;;;4.38;3.70;;;19.60;73.00;;;;;;5074357;28;20016;-76
2021/09/07 04:09:31;;;;;;;4.43;4.03;;;19.60;72.90;;;;;;5073347;28;20054;-75
2021/09/07 04:11:57;;;;;;;6.07;3.47;;;19.60;73.30;;;;;;5073283;28;20035;-76
2021/09/07 04:14:23;;;;;;;4.22;3.90;;;19.60;73.00;;;;;;5072784;28;20450;-76
2021/09/07 04:16:48;;;;;;;4.97;4.05;;;19.60;72.90;;;;;;5055205;28;20107;-76
2021/09/07 04:19:14;;;;;;;8.30;4.35;;;19.60;72.80;;;;;;5073293;28;20036;-76
2021/09/07 04:21:40;;;;;;;4.53;4.13;;;19.60;73.10;;;;;;5073030;28;20024;-76
2021/09/07 04:24:06;;;;;;;5.18;3.88;;;19.50;73.10;;;;;;5073311;28;20066;-75
2021/09/07 04:26:32;;;;;;;5.35;4.28;;;19.50;73.20;;;;;;5073112;28;20017;-76
2021/09/07 04:28:59;;;;;;;4.10;3.80;;;19.50;73.30;;;;;;5073110;28;20037;-75
2021/09/07 04:31:25;;;;;;;5.45;4.22;;;19.50;73.20;;;;;;5091419;28;20128;-75
2021/09/07 04:33:51;;;;;;;6.35;3.90;;;19.50;73.00;;;;;;5068149;28;20024;-76
2021/09/07 04:36:17;;;;;;;4.55;4.15;;;19.50;73.00;;;;;;5079063;28;20023;-75
2021/09/07 04:38:43;;;;;;;5.63;3.90;;;19.50;73.20;;;;;;5083565;28;20027;-75
2021/09/07 04:41:08;;;;;;;11.10;3.97;;;19.50;73.00;;;;;;5072510;28;20465;-75
2021/09/07 04:43:34;;;;;;;7.22;4.50;;;19.50;73.20;;;;;;5072268;28;20044;-76
2021/09/07 04:46:00;;;;;;;7.45;3.83;;;19.50;74.00;;;;;;5072531;28;20360;-75
2021/09/07 04:48:26;;;;;;;4.10;3.70;;;19.50;73.20;;;;;;5072470;28;20048;-75
2021/09/07 04:50:51;;;;;;;6.10;4.18;;;19.60;73.70;;;;;;5072456;28;20060;-75
2021/09/07 04:53:17;;;;;;;6.47;4.15;;;19.50;73.30;;;;;;5073197;28;20121;-76
2021/09/07 04:55:44;;;;;;;5.88;3.83;;;19.50;73.20;;;;;;5072329;28;20502;-76
2021/09/07 04:58:10;;;;;;;4.38;3.97;;;19.50;73.00;;;;;;5072203;28;20110;-75
2021/09/07 05:00:35;;;;;;;5.32;3.85;;;19.50;73.10;;;;;;5072297;28;20028;-75
2021/09/07 05:03:02;;;;;;;8.27;3.90;;;19.50;73.50;;;;;;5072153;28;20029;-75
2021/09/07 05:05:28;;;;;;;5.60;3.40;;;19.50;73.50;;;;;;5052272;28;20019;-75
2021/09/07 05:07:53;;;;;;;4.55;4.10;;;19.50;73.60;;;;;;5073328;28;20023;-76
2021/09/07 05:10:19;;;;;;;4.18;3.78;;;19.50;73.80;;;;;;5065146;28;20417;-76
2021/09/07 05:12:45;;;;;;;5.97;4.13;;;19.50;73.80;;;;;;5072022;28;20033;-76
2021/09/07 05:15:11;;;;;;;6.30;3.65;;;19.50;73.20;;;;;;5071942;28;20036;-76
2021/09/07 05:17:37;;;;;;;4.47;4.07;;;19.50;73.50;;;;;;5065683;28;20036;-77
2021/09/07 05:20:03;;;;;;;6.30;3.90;;;19.40;73.70;;;;;;5091061;28;20074;-75
2021/09/07 05:22:30;;;;;;;4.68;3.83;;;19.40;74.00;;;;;;5073515;28;20028;-76
2021/09/07 05:24:55;;;;;;;4.32;3.90;;;19.30;75.20;;;;;;5090264;28;20116;-76
2021/09/07 05:27:21;;;;;;;5.57;3.78;;;19.30;74.50;;;;;;5075385;28;20107;-76
2021/09/07 05:29:47;;;;;;;4.05;3.65;;;19.30;74.70;;;;;;5057310;28;20055;-75
2021/09/07 05:32:13;;;;;;;6.00;4.18;;;19.30;74.80;;;;;;5057526;28;20033;-76
2021/09/07 05:34:38;;;;;;;5.57;3.88;;;19.30;75.00;;;;;;5075581;28;20108;-76
2021/09/07 05:37:04;;;;;;;5.85;4.32;;;19.30;75.00;;;;;;5075548;28;20552;-75
2021/09/07 05:39:30;;;;;;;4.68;4.20;;;19.30;75.00;;;;;;5075651;28;20476;-75
2021/09/07 05:41:56;;;;;;;5.85;4.15;;;19.30;74.90;;;;;;5057469;28;20533;-76
2021/09/07 05:44:22;;;;;;;4.07;3.75;;;19.40;74.70;;;;;;5075603;28;20081;-76
2021/09/07 05:46:49;;;;;;;4.88;3.80;;;19.40;74.50;;;;;;5094643;28;20105;-76
2021/09/07 05:49:15;;;;;;;4.43;3.60;;;19.50;74.50;;;;;;5077354;28;20020;-75
2021/09/07 05:51:41;;;;;;;7.72;4.57;;;19.50;74.30;;;;;;5089057;28;20020;-76
2021/09/07 05:54:08;;;;;;;4.75;4.25;;;19.60;74.60;;;;;;5075363;28;20107;-75
2021/09/07 05:56:34;;;;;;;5.53;4.03;;;19.60;74.70;;;;;;5075360;28;20029;-75
2021/09/07 05:59:00;;;;;;;5.07;4.13;;;19.60;74.80;;;;;;5075286;28;20024;-76
2021/09/07 06:01:26;;;;;;;10.35;4.47;;;19.60;75.60;;;;;;5090093;28;20020;-75
2021/09/07 06:03:52;;;;;;;3.92;3.63;;;19.70;75.00;;;;;;5074979;28;20099;-76
2021/09/07 06:06:17;;;;;;;3.83;3.40;;;19.70;74.70;;;;;;5075049;28;20435;-75
2021/09/07 06:08:43;;;;;;;4.53;4.13;;;19.80;74.50;;;;;;5074860;28;20017;-76
2021/09/07 06:11:09;;;;;;;5.78;4.85;;;19.70;74.60;;;;;;5088505;28;20028;-76
2021/09/07 06:13:36;;;;;;;4.28;3.88;;;19.80;75.00;;;;;;5095212;28;20043;-75
2021/09/07 06:16:02;;;;;;;4.55;3.78;;;19.80;75.00;;;;;;5076832;28;20028;-75
2021/09/07 06:18:28;;;;;;;8.52;4.55;;;19.90;74.90;;;;;;5076790;28;20016;-75
2021/09/07 06:20:54;;;;;;;5.78;3.65;;;19.90;75.00;;;;;;5095098;28;20475;-75
2021/09/07 06:23:21;;;;;;;7.30;4.38;;;19.90;75.20;;;;;;5056819;28;20376;-76
2021/09/07 06:25:47;;;;;;;5.78;4.22;;;20.00;75.10;;;;;;5074616;28;20349;-76
2021/09/07 06:28:13;;;;;;;7.70;4.53;;;20.00;75.00;;;;;;5056244;28;20040;-75
2021/09/07 06:30:39;;;;;;;4.55;3.67;;;20.10;74.70;;;;;;5074519;28;20025;-75
2021/09/07 06:33:05;;;;;;;4.63;3.80;;;20.10;74.70;;;;;;5074152;28;20113;-75
2021/09/07 06:35:31;;;;;;;7.68;4.60;;;20.20;74.90;;;;;;5069102;28;20060;-75
2021/09/07 06:37:57;;;;;;;6.55;4.32;;;20.20;75.20;;;;;;5078487;28;20470;-78
2021/09/07 06:40:23;;;;;;;7.95;4.47;;;20.30;74.40;;;;;;5068729;28;20028;-78
2021/09/07 06:42:49;;;;;;;9.30;3.92;;;20.40;74.50;;;;;;5075670;28;20066;-78
2021/09/07 06:45:15;;;;;;;5.80;4.00;;;20.50;74.30;;;;;;5057766;28;20031;-78
2021/09/07 06:47:41;;;;;;;4.32;3.75;;;20.60;74.20;;;;;;5074792;28;20020;-78
2021/09/07 06:50:07;;;;;;;4.90;3.97;;;20.60;74.30;;;;;;5074699;28;20021;-78
2021/09/07 06:52:33;;;;;;;5.05;4.20;;;20.70;74.50;;;;;;5088414;28;20040;-78
2021/09/07 06:54:59;;;;;;;4.07;3.50;;;20.70;75.00;;;;;;5094193;28;20016;-78
2021/09/07 06:57:26;;;;;;;5.50;3.90;;;20.80;74.60;;;;;;5083242;28;20039;-78
2021/09/07 06:59:53;;;;;;;4.60;3.90;;;20.80;75.20;;;;;;5072183;28;20066;-77
2021/09/07 07:02:19;;;;;;;5.50;3.85;;;20.90;75.30;;;;;;5066206;28;20040;-77
2021/09/07 07:04:45;;;;;;;4.95;3.92;;;20.90;76.50;;;;;;5071356;28;20016;-77
2021/09/07 07:07:12;;;;;;;7.20;4.25;;;21.00;77.60;;;;;;5073200;28;20349;-77
2021/09/07 07:09:37;;;;;;;6.10;4.10;;;21.00;78.40;;;;;;5055704;28;20031;-77
2021/09/07 07:12:04;;;;;;;12.55;4.45;;;21.00;79.10;;;;;;5075137;28;20033;-77
2021/09/07 07:14:30;;;;;;;8.63;4.70;;;21.10;79.00;;;;;;5073072;28;20464;-78
2021/09/07 07:16:56;;;;;;;4.25;3.88;;;21.10;80.90;;;;;;5072224;28;20094;-78
2021/09/07 07:19:22;;;;;;;7.10;4.10;;;21.20;81.30;;;;;;5057388;28;20033;-77
2021/09/07 07:21:48;;;;;;;6.60;4.57;;;21.20;83.20;;;;;;5059225;28;20446;-75
2021/09/07 07:24:16;;;;;;;5.68;3.67;;;21.20;83.80;;;;;;5069329;28;20024;-73
2021/09/07 07:26:45;;;;;;;6.00;4.40;;;21.30;83.80;;;;;;5073423;28;20028;-73
2021/09/07 07:29:12;;;;;;;8.95;4.60;;;21.30;84.30;;;;;;5072229;28;20400;-76
2021/09/07 07:31:39;;;;;;;7.03;4.18;;;21.40;82.10;;;;;;5061242;28;20040;-76
2021/09/07 07:34:05;;;;;;;5.35;4.38;;;21.40;81.00;;;;;;5071542;28;20374;-75
2021/09/07 07:36:33;;;;;;;5.97;4.00;;;21.50;80.80;;;;;;5072131;28;20032;-75
2021/09/07 07:39:00;;;;;;;5.90;3.85;;;21.60;79.50;;;;;;5072522;28;20073;-76
2021/09/07 07:41:25;;;;;;;10.05;4.50;;;21.60;76.50;;;;;;5072299;28;20036;-76
2021/09/07 07:43:52;;;;;;;13.93;4.75;;;21.70;78.90;;;;;;5076426;28;20606;-76
2021/09/07 07:46:17;;;;;;;5.80;4.30;;;21.80;77.10;;;;;;5071235;28;20024;-75
2021/09/07 07:48:43;;;;;;;9.93;4.75;;;21.80;78.40;;;;;;5071194;28;20761;-75
2021/09/07 07:51:11;;;;;;;7.18;4.40;;;21.80;80.00;;;;;;5072034;28;20598;-76
2021/09/07 07:53:37;;;;;;;8.13;4.20;;;21.80;80.40;;;;;;5053319;28;20372;-75
2021/09/07 07:56:04;;;;;;;8.65;4.18;;;21.90;80.50;;;;;;5071717;28;20633;-75
2021/09/07 07:58:29;;;;;;;12.35;4.57;;;21.90;79.20;;;;;;5053058;28;20458;-76
2021/09/07 08:00:55;;;;;;;5.85;4.30;;;22.00;78.20;;;;;;5054561;28;20146;-75
2021/09/07 08:03:22;;;;;;;4.90;4.10;;;22.00;76.70;;;;;;5070882;28;20032;-76
2021/09/07 08:05:47;;;;;;;8.60;4.13;;;22.10;74.60;;;;;;5052852;28;20388;-75
2021/09/07 08:08:13;;;;;;;9.32;4.30;;;22.20;77.60;;;;;;5070238;28;20019;-76
2021/09/07 08:10:39;;;;;;;7.70;4.15;;;22.20;75.20;;;;;;5070364;28;20027;-75
2021/09/07 08:13:06;;;;;;;11.20;4.75;;;22.30;72.50;;;;;;5055292;28;20488;-77
2021/09/07 08:15:32;;;;;;;6.25;3.85;;;22.50;73.70;;;;;;5070698;28;20029;-76
2021/09/07 08:17:59;;;;;;;5.38;3.63;;;22.60;74.00;;;;;;5070380;28;20024;-75
2021/09/07 08:20:26;;;;;;;6.07;4.57;;;22.60;73.80;;;;;;5054405;28;20052;-75
2021/09/07 08:22:52;;;;;;;5.75;3.72;;;22.70;73.80;;;;;;5070320;28;20020;-75
2021/09/07 08:25:18;;;;;;;7.50;4.25;;;22.70;72.80;;;;;;5071436;28;20019;-75
2021/09/07 08:27:44;;;;;;;7.18;4.40;;;22.80;71.80;;;;;;5071637;28;20509;-75
2021/09/07 08:30:10;;;;;;;6.53;3.55;;;22.80;71.30;;;;;;5052783;28;20044;-75
2021/09/07 08:32:40;;;;;;;6.43;4.05;;;22.90;68.10;;;;;;5052945;28;20376;-75
2021/09/07 08:35:11;;;;;;;5.07;4.10;;;23.00;66.40;;;;;;5068845;28;20095;-75
2021/09/07 08:37:38;;;;;;;5.30;4.20;;;23.00;65.70;;;;;;5071034;28;20028;-75
2021/09/07 08:40:04;;;;;;;4.68;4.25;;;23.10;65.80;;;;;;5069877;28;20017;-75
2021/09/07 08:42:33;;;;;;;8.25;4.43;;;23.10;65.30;;;;;;5072535;28;20033;-75
2021/09/07 08:44:59;;;;;;;8.85;4.70;;;23.10;61.80;;;;;;5070640;28;20015;-75
2021/09/07 08:47:25;;;;;;;5.20;4.15;;;23.20;62.60;;;;;;5070570;28;20109;-75
2021/09/07 08:49:51;;;;;;;5.57;4.32;;;23.20;61.60;;;;;;5071222;28;20033;-75
2021/09/07 08:52:19;;;;;;;5.85;4.28;;;23.10;62.00;;;;;;5070367;28;20036;-75
2021/09/07 08:54:46;;;;;;;5.75;4.50;;;23.10;62.50;;;;;;5069577;28;20044;-76
2021/09/07 08:57:12;;;;;;;7.93;4.35;;;23.10;64.50;;;;;;5069992;28;20016;-75
2021/09/07 08:59:38;;;;;;;6.75;4.60;;;23.10;64.50;;;;;;5073546;28;20037;-75
2021/09/07 09:02:15;;;;;;;6.03;4.75;;;23.10;65.70;;;;;;5079255;28;20031;-75
2021/09/07 09:04:48;;;;;;;7.72;5.10;;;23.10;66.50;;;;;;5070157;28;20052;-75
2021/09/07 09:07:32;;;;;;;8.50;4.80;;;23.10;66.90;;;;;;5073093;28;20051;-75
2021/09/07 09:09:59;;;;;;;8.15;4.65;;;23.00;66.30;;;;;;5071380;28;20037;-75
2021/09/07 09:12:33;;;;;;;7.93;4.95;;;23.00;65.30;;;;;;5054673;28;20069;-75
2021/09/07 09:14:59;;;;;;;11.55;4.68;;;23.10;65.60;;;;;;5072645;28;20032;-75
2021/09/07 09:17:30;;;;;;;6.07;4.50;;;23.10;64.90;;;;;;5072331;28;20035;-75
2021/09/07 09:20:01;;;;;;;7.07;4.82;;;23.20;65.20;;;;;;5070428;28;20068;-75
2021/09/07 09:22:45;;;;;;;5.07;4.40;;;23.20;67.20;;;;;;5068201;28;20052;-75
2021/09/07 09:25:20;;;;;;;5.30;4.30;;;23.30;65.10;;;;;;5052273;28;20025;-73
2021/09/07 09:27:55;;;;;;;10.73;4.55;;;23.30;67.50;;;;;;5071244;28;20671;-75
2021/09/07 09:30:31;;;;;;;5.97;4.82;;;23.30;66.00;;;;;;5059625;28;20044;-77
2021/09/07 09:33:00;;;;;;;10.90;5.32;;;23.30;64.80;;;;;;5074761;28;20024;-77
2021/09/07 09:35:27;;;;;;;9.65;4.68;;;23.50;64.50;;;;;;5054621;28;20020;-77
2021/09/07 09:37:52;;;;;;;8.43;4.40;;;23.60;62.80;;;;;;5075709;28;20107;-77
2021/09/07 09:40:18;;;;;;;9.30;4.43;;;23.50;61.70;;;;;;5075660;28;20108;-78
2021/09/07 09:42:44;;;;;;;8.60;4.57;;;23.50;63.00;;;;;;5069857;28;20027;-78
2021/09/07 09:45:10;;;;;;;4.55;4.15;;;23.50;64.50;;;;;;5055134;28;20107;-77
2021/09/07 09:47:43;;;;;;;19.60;5.13;;;23.50;61.80;;;;;;5055616;28;20055;-77
2021/09/07 09:50:14;;;;;;;6.85;4.20;;;23.60;62.40;;;;;;5072023;28;20028;-76
2021/09/07 09:52:42;;;;;;;5.13;4.13;;;23.70;60.60;;;;;;5071807;28;20025;-77
2021/09/07 09:55:11;;;;;;;5.97;4.53;;;23.70;59.90;;;;;;5072518;28;20028;-77
2021/09/07 09:57:38;;;;;;;9.80;4.22;;;23.70;61.10;;;;;;5072519;28;20036;-76
2021/09/07 10:00:10;;;;;;;6.63;3.72;;;23.80;61.30;;;;;;5071913;28;20024;-76
2021/09/07 10:02:36;;;;;;;;;;;23.80;59.40;;;;;;5072365;28;20013;-75
2021/09/07 10:05:02;;;;;;;5.25;4.53;;;23.80;59.60;;;;;;5074821;28;19905;-75
2021/09/07 10:07:28;;;;;;;9.70;4.25;;;24.00;59.30;;;;;;5075109;28;20032;-75
2021/09/07 10:09:57;;;;;;;5.57;4.70;;;24.10;59.70;;;;;;5075112;28;20060;-75
2021/09/07 10:12:28;;;;;;;7.85;4.88;;;24.20;59.00;;;;;;5074715;28;20033;-78
2021/09/07 10:15:08;;;;;;;5.28;4.78;;;24.20;58.30;;;;;;5074657;28;20025;-76
2021/09/07 10:20:13;;;;;;;11.98;4.35;;;24.30;58.60;;;;;;5073467;28;20028;-76
2021/09/07 10:25:48;;;;;;;6.40;4.30;;;24.50;56.90;;;;;;5074671;28;20031;-77
2021/09/07 10:28:34;;;;;;;9.27;4.55;;;24.40;55.40;;;;;;5074318;28;20357;-76
2021/09/07 10:31:06;;;;;;;5.85;4.45;;;24.40;56.50;;;;;;5074419;28;20028;-76
2021/09/07 10:33:54;;;;;;;10.68;4.10;;;24.50;56.20;;;;;;5074310;28;20028;-76
2021/09/07 10:36:22;;;;;;;6.63;4.80;;;24.50;57.30;;;;;;5074164;28;20024;-76
2021/09/07 10:38:57;;;;;;;5.25;4.07;;;24.60;55.80;;;;;;5074454;28;20032;-76
2021/09/07 10:41:38;;;;;;;7.28;4.40;;;24.80;57.60;;;;;;5074705;28;20020;-76
2021/09/07 10:44:08;;;;;;;8.35;4.47;;;24.90;58.60;;;;;;5056317;28;20033;-77
2021/09/07 10:46:38;;;;;;;7.38;4.40;;;25.00;57.10;;;;;;5074371;28;20032;-76
2021/09/07 10:49:26;;;;;;;9.00;4.75;;;25.10;55.90;;;;;;5074615;28;20020;-76
2021/09/07 10:52:11;;;;;;;5.70;4.18;;;25.10;55.40;;;;;;5074338;28;20070;-76
2021/09/07 10:54:50;;;;;;;7.57;4.55;;;25.20;57.00;;;;;;5056252;28;20078;-76
2021/09/07 10:57:34;;;;;;;6.38;4.28;;;25.20;55.60;;;;;;5056079;28;20028;-76
2021/09/07 11:00:07;;;;;;;7.00;4.80;;;25.10;56.50;;;;;;5074269;28;20020;-76
2021/09/07 11:02:37;;;;;;;9.18;4.53;;;25.30;57.10;;;;;;5055998;28;20032;-76
2021/09/07 11:05:08;;;;;;;11.75;4.47;;;25.40;56.20;;;;;;5057078;28;20658;-77
2021/09/07 11:07:37;;;;;;;5.90;4.22;;;25.40;55.60;;;;;;5054060;28;20021;-76
2021/09/07 11:10:03;;;;;;;5.60;4.65;;;25.40;56.30;;;;;;5054244;28;20017;-76
2021/09/07 11:12:33;;;;;;;12.20;4.53;;;25.30;54.90;;;;;;5053707;28;20107;-77
2021/09/07 11:15:01;;;;;;;6.28;4.43;;;25.30;55.10;;;;;;5053760;28;20150;-77
2021/09/07 11:17:27;;;;;;;6.75;4.82;;;25.60;56.00;;;;;;5053889;28;20021;-76
2021/09/07 11:20:07;;;;;;;5.63;4.40;;;25.60;56.50;;;;;;5035927;28;20059;-77
2021/09/07 11:22:34;;;;;;;5.65;4.70;;;25.60;55.20;;;;;;5053735;28;20028;-76
2021/09/07 11:25:05;;;;;;;6.78;4.35;;;25.90;55.90;;;;;;5058649;28;20087;-77
2021/09/07 11:27:50;;;;;;;8.70;4.80;;;26.00;56.20;;;;;;5072393;28;20100;-76
2021/09/07 11:30:27;;;;;;;4.80;3.95;;;26.00;53.00;;;;;;5073285;28;20124;-77
2021/09/07 11:33:16;;;;;;;8.75;4.32;;;26.00;53.30;;;;;;5072252;28;20044;-76
2021/09/07 11:35:45;;;;;;;6.00;4.82;;;26.20;51.80;;;;;;5053509;28;20024;-76
2021/09/07 11:38:29;;;;;;;5.53;4.82;;;26.10;51.50;;;;;;5053468;28;20029;-76
2021/09/07 11:41:00;;;;;;;9.10;5.03;;;26.10;51.80;;;;;;5053364;28;20021;-76
2021/09/07 11:43:37;;;;;;;6.05;4.00;;;26.10;51.70;;;;;;5053724;28;20052;-76
2021/09/07 11:46:38;;;;;;;6.72;4.38;;;26.20;52.50;;;;;;5053828;28;20033;-77
2021/09/07 11:49:05;;;;;;;12.45;4.18;;;26.20;49.60;;;;;;5050020;28;20035;-76
2021/09/07 11:51:33;;;;;;;5.47;3.97;;;26.10;51.20;;;;;;5053172;28;20513;-76
2021/09/07 11:54:03;;;;;;;5.25;4.00;;;26.00;49.10;;;;;;5053166;28;20392;-76
2021/09/07 11:56:32;;;;;;;10.57;4.65;;;26.00;51.00;;;;;;5052712;28;20560;-76
2021/09/07 11:59:11;;;;;;;5.35;4.45;;;26.00;51.90;;;;;;5052976;28;20040;-77
2021/09/07 12:01:47;;;;;;;4.63;4.00;;;25.90;51.30;;;;;;5035155;28;20024;-76
2021/09/07 12:04:15;;;;;;;7.28;4.60;;;26.00;50.70;;;;;;5062522;28;20099;-76
2021/09/07 12:06:42;;;;;;;7.70;4.68;;;26.00;50.20;;;;;;5072826;28;20013;-76
2021/09/07 12:09:17;;;;;;;7.45;4.25;;;26.10;51.50;;;;;;5054795;28;20028;-76
2021/09/07 12:11:45;;;;;;;4.93;4.15;;;26.20;50.40;;;;;;5072792;28;20031;-76
2021/09/07 12:14:14;;;;;;;8.05;5.30;;;26.30;51.50;;;;;;5072756;28;20048;-76
2021/09/07 12:16:56;;;;;;;7.00;4.25;;;26.30;50.10;;;;;;5072924;28;20027;-76
2021/09/07 12:19:30;;;;;;;5.55;4.13;;;26.20;51.30;;;;;;5072786;28;20472;-76
2021/09/07 12:22:14;;;;;;;5.53;4.47;;;26.20;50.20;;;;;;5072590;28;20104;-76
2021/09/07 12:25:03;;;;;;;8.48;4.30;;;26.10;50.70;;;;;;5072667;28;20029;-76
2021/09/07 12:27:30;;;;;;;5.78;4.95;;;26.20;49.80;;;;;;5072976;28;20021;-76
2021/09/07 12:30:08;;;;;;;8.18;5.72;;;26.20;50.40;;;;;;5072291;28;20055;-76
2021/09/07 12:33:07;;;;;;;5.50;4.43;;;26.30;49.80;;;;;;5071142;28;20618;-77
2021/09/07 12:35:42;;;;;;;7.45;4.68;;;26.40;51.80;;;;;;5040413;28;20044;-76
2021/09/07 12:38:14;;;;;;;7.32;4.45;;;26.40;50.40;;;;;;5034561;28;20048;-77
2021/09/07 12:40:42;;;;;;;6.75;4.32;;;26.30;52.80;;;;;;5052417;28;20032;-76
2021/09/07 12:43:19;;;;;;;4.80;4.40;;;26.30;53.90;;;;;;5057534;28;20027;-76
2021/09/07 12:45:48;;;;;;;5.38;4.18;;;26.40;53.30;;;;;;5072617;28;20484;-76
2021/09/07 12:48:14;;;;;;;7.55;4.50;;;26.50;53.60;;;;;;5072348;28;20100;-76
2021/09/07 12:50:40;;;;;;;5.38;4.45;;;26.60;50.90;;;;;;5072525;28;20027;-76
2021/09/07 12:53:08;;;;;;;6.25;4.25;;;26.60;50.30;;;;;;5072271;28;20115;-77
2021/09/07 12:55:37;;;;;;;5.25;4.43;;;26.70;49.90;;;;;;5072290;28;20043;-76